createdAt,value
2023-03-02T00:02:32.516Z,-84
2023-03-02T00:05:41.990Z,-80
2023-03-02T00:08:48.880Z,-81
2023-03-02T00:11:55.789Z,-81
2023-03-02T00:15:01.716Z,-81
2023-03-02T00:18:11.203Z,-82
2023-03-02T00:21:17.545Z,-80
2023-03-02T00:24:24.259Z,-81
2023-03-02T00:27:30.363Z,-81
2023-03-02T00:30:37.140Z,-81
2023-03-02T00:33:46.406Z,-81
2023-03-02T00:36:53.258Z,-81
2023-03-02T00:39:59.266Z,-81
2023-03-02T00:43:06.144Z,-81
2023-03-02T00:46:14.569Z,-81
2023-03-02T00:49:23.924Z,-81
2023-03-02T00:52:29.905Z,-81
2023-03-02T00:55:36.478Z,-80
2023-03-02T00:58:42.617Z,-81
2023-03-02T01:01:58.414Z,-79
2023-03-02T01:05:09.966Z,-80
2023-03-02T01:08:16.904Z,-82
2023-03-02T01:11:25.984Z,-82
2023-03-02T01:14:34.727Z,-81
2023-03-02T01:17:41.476Z,-81
2023-03-02T01:20:50.601Z,-82
2023-03-02T01:23:56.443Z,-82
2023-03-02T01:27:06.150Z,-81
2023-03-02T01:30:14.339Z,-82
2023-03-02T01:33:21.460Z,-81
2023-03-02T01:36:30.981Z,-81
2023-03-02T01:39:37.919Z,-81
2023-03-02T01:43:02.497Z,-80
2023-03-02T01:46:17.363Z,-80
2023-03-02T01:49:31.647Z,-79
2023-03-02T01:52:43.364Z,-80
2023-03-02T01:55:50.638Z,-81
2023-03-02T01:59:04.330Z,-80
2023-03-02T02:02:14.834Z,-80
2023-03-02T02:05:28.313Z,-79
2023-03-02T02:08:38.102Z,-79
2023-03-02T02:11:46.095Z,-80
2023-03-02T02:14:54.287Z,-80
2023-03-02T02:18:01.010Z,-80
2023-03-02T02:21:08.551Z,-80
2023-03-02T02:24:28.081Z,-80
2023-03-02T02:27:36.780Z,-80
2023-03-02T02:30:46.575Z,-80
2023-03-02T02:34:00.577Z,-80
2023-03-02T02:37:16.531Z,-80
2023-03-02T02:40:44.727Z,-80
2023-03-02T02:43:58.475Z,-80
2023-03-02T02:47:05.861Z,-80
2023-03-02T02:50:23.744Z,-79
2023-03-02T02:53:38.085Z,-80
2023-03-02T02:56:47.439Z,-80
2023-03-02T03:00:04.060Z,-79
2023-03-02T03:03:31.986Z,-79
2023-03-02T03:06:42.418Z,-79
2023-03-02T03:10:03.490Z,-79
2023-03-02T03:13:11.416Z,-80
2023-03-02T03:16:24.057Z,-79
2023-03-02T03:19:33.336Z,-80
2023-03-02T03:22:42.219Z,-80
2023-03-02T03:25:50.048Z,-79
2023-03-02T03:28:57.428Z,-80
2023-03-02T03:32:08.438Z,-80
2023-03-02T03:35:15.762Z,-81
2023-03-02T03:38:22.112Z,-80
2023-03-02T03:41:30.429Z,-80
2023-03-02T03:44:36.564Z,-80
2023-03-02T03:47:45.798Z,-80
2023-03-02T03:50:52.245Z,-80
2023-03-02T03:54:08.542Z,-80
2023-03-02T03:57:17.615Z,-81
2023-03-02T04:00:26.260Z,-79
2023-03-02T04:03:40.029Z,-80
2023-03-02T04:06:47.775Z,-80
2023-03-02T04:10:03.615Z,-80
2023-03-02T04:13:14.141Z,-81
2023-03-02T04:16:20.244Z,-81
2023-03-02T04:19:29.638Z,-81
2023-03-02T04:22:37.308Z,-80
2023-03-02T04:25:44.191Z,-80
2023-03-02T04:28:54.150Z,-80
2023-03-02T04:32:01.705Z,-79
2023-03-02T04:35:12.789Z,-80
2023-03-02T04:38:19.781Z,-79
2023-03-02T04:41:26.667Z,-79
2023-03-02T04:44:33.245Z,-79
2023-03-02T04:47:39.294Z,-80
2023-03-02T04:50:49.019Z,-81
2023-03-02T04:53:57.509Z,-81
2023-03-02T04:57:04.227Z,-81
2023-03-02T05:00:13.147Z,-80
2023-03-02T05:03:22.242Z,-81
2023-03-02T05:06:31.155Z,-81
2023-03-02T05:09:39.500Z,-81
2023-03-02T05:12:58.359Z,-81
2023-03-02T05:16:05.175Z,-81
2023-03-02T05:19:18.055Z,-81
2023-03-02T05:22:27.280Z,-80
2023-03-02T05:25:37.144Z,-80
2023-03-02T05:28:47.077Z,-80
2023-03-02T05:31:53.574Z,-80
2023-03-02T05:35:00.661Z,-80
2023-03-02T05:38:09.454Z,-80
2023-03-02T05:41:16.062Z,-79
2023-03-02T05:44:22.109Z,-80
2023-03-02T05:47:28.764Z,-79
2023-03-02T05:50:34.999Z,-79
2023-03-02T05:53:44.180Z,-79
2023-03-02T05:56:50.444Z,-79
2023-03-02T05:59:57.048Z,-80
2023-03-02T06:03:06.358Z,-78
2023-03-02T06:06:14.453Z,-79
2023-03-02T06:09:22.997Z,-79
2023-03-02T06:12:29.834Z,-78
2023-03-02T06:15:35.744Z,-79
2023-03-02T06:18:46.149Z,-79
2023-03-02T06:21:51.929Z,-79
2023-03-02T06:25:01.077Z,-78
2023-03-02T06:28:09.852Z,-78
2023-03-02T06:31:16.451Z,-79
2023-03-02T06:34:22.274Z,-78
2023-03-02T06:37:28.991Z,-78
2023-03-02T06:40:40.015Z,-82
2023-03-02T06:43:46.840Z,-89
2023-03-02T06:46:52.661Z,-94
2023-03-02T06:49:59.495Z,-95
2023-03-02T06:53:05.758Z,-92
2023-03-02T06:56:14.979Z,-94
2023-03-02T06:59:20.731Z,-94
2023-03-02T07:02:27.332Z,-91
2023-03-02T07:05:34.051Z,-94
2023-03-02T07:08:40.635Z,-93
2023-03-02T07:11:49.069Z,-92
2023-03-02T07:14:55.608Z,-92
2023-03-02T07:18:01.604Z,-92
2023-03-02T07:21:09.334Z,-91
2023-03-02T07:24:15.118Z,-90
2023-03-02T07:27:24.535Z,-91
2023-03-02T07:30:32.743Z,-90
2023-03-02T07:33:40.257Z,-90
2023-03-02T07:36:45.965Z,-89
2023-03-02T07:39:54.224Z,-90
2023-03-02T07:43:02.778Z,-90
2023-03-02T07:46:09.706Z,-90
2023-03-02T07:49:15.601Z,-90
2023-03-02T07:52:22.169Z,-90
2023-03-02T07:55:28.051Z,-90
2023-03-02T07:58:38.902Z,-90
2023-03-02T08:01:44.822Z,-89
2023-03-02T08:04:52.458Z,-91
2023-03-02T08:07:58.275Z,-89
2023-03-02T08:11:08.943Z,-90
2023-03-02T08:14:17.579Z,-80
2023-03-02T08:17:24.282Z,-87
2023-03-02T08:20:30.378Z,-88
2023-03-02T08:23:37.327Z,-88
2023-03-02T08:26:44.853Z,-87
2023-03-02T08:29:54.690Z,-88
2023-03-02T08:33:04.425Z,-87
2023-03-02T08:36:17.837Z,-85
2023-03-02T08:39:23.965Z,-88
2023-03-02T08:42:30.657Z,-87
2023-03-02T08:45:40.805Z,-88
2023-03-02T08:48:48.305Z,-88
2023-03-02T08:51:56.462Z,-88
2023-03-02T08:55:04.131Z,-89
2023-03-02T08:58:10.078Z,-88
2023-03-02T09:01:22.184Z,-88
2023-03-02T09:04:28.024Z,-87
2023-03-02T09:07:35.814Z,-86
2023-03-02T09:10:42.180Z,-87
2023-03-02T09:13:49.162Z,-87
2023-03-02T09:16:57.555Z,-87
2023-03-02T09:20:04.276Z,-86
2023-03-02T09:23:11.202Z,-86
2023-03-02T09:26:17.968Z,-87
2023-03-02T09:29:23.824Z,-87
2023-03-02T09:32:33.351Z,-87
2023-03-02T09:35:42.131Z,-89
2023-03-02T09:38:48.803Z,-87
2023-03-02T09:42:44.397Z,-87
2023-03-02T09:46:11.740Z,-87
2023-03-02T09:49:35.816Z,-87
2023-03-02T09:52:53.668Z,-87
2023-03-02T09:56:02.649Z,-89
2023-03-02T09:59:24.078Z,-87
2023-03-02T10:02:38.367Z,-87
2023-03-02T10:05:51.163Z,-86
2023-03-02T10:08:58.119Z,-88
2023-03-02T10:12:45.107Z,-86
2023-03-02T10:16:11.643Z,-87
2023-03-02T10:19:28.699Z,-86
2023-03-02T10:22:49.486Z,-88
2023-03-02T10:26:05.421Z,-88
2023-03-02T10:29:42.751Z,-86
2023-03-02T10:32:55.084Z,-87
2023-03-02T10:36:01.330Z,-86
2023-03-02T10:39:19.346Z,-88
2023-03-02T10:42:33.889Z,-86
2023-03-02T10:45:40.567Z,-90
2023-03-02T10:48:56.367Z,-89
2023-03-02T10:52:08.570Z,-88
2023-03-02T10:55:20.193Z,-87
2023-03-02T10:58:33.624Z,-86
2023-03-02T11:01:39.473Z,-89
2023-03-02T11:04:46.489Z,-88
2023-03-02T11:07:57.703Z,-89
2023-03-02T11:11:08.310Z,-88
2023-03-02T11:14:20.388Z,-88
2023-03-02T11:17:37.455Z,-88
2023-03-02T11:20:50.217Z,-87
2023-03-02T11:24:12.407Z,-87
2023-03-02T11:27:30.657Z,-88
2023-03-02T11:30:49.969Z,-86
2023-03-02T11:34:18.034Z,-89
2023-03-02T11:37:32.994Z,-89
2023-03-02T11:40:49.842Z,-87
2023-03-02T11:44:04.971Z,-92
2023-03-02T11:47:16.295Z,-91
2023-03-02T11:50:24.341Z,-90
2023-03-02T11:53:44.452Z,-89
2023-03-02T11:56:51.291Z,-87
2023-03-02T12:00:02.496Z,-88
2023-03-02T12:03:41.553Z,-88
2023-03-02T12:06:47.347Z,-87
2023-03-02T12:10:07.809Z,-86
2023-03-02T12:13:26.234Z,-86
2023-03-02T12:16:43.254Z,-86
2023-03-02T12:19:51.761Z,-88
2023-03-02T12:23:11.648Z,-85
2023-03-02T12:26:34.054Z,-87
2023-03-02T12:29:44.325Z,-87
2023-03-02T12:33:07.035Z,-88
2023-03-02T12:36:28.087Z,-86
2023-03-02T12:40:11.686Z,-86
2023-03-02T12:43:32.718Z,-86
2023-03-02T12:46:41.121Z,-85
2023-03-02T12:50:00.758Z,-86
2023-03-02T12:53:10.075Z,-86
2023-03-02T12:56:26.995Z,-85
2023-03-02T12:59:32.992Z,-86
2023-03-02T13:02:40.313Z,-85
2023-03-02T13:05:50.169Z,-86
2023-03-02T13:09:01.608Z,-86
2023-03-02T13:12:08.194Z,-86
2023-03-02T13:15:20.501Z,-87
2023-03-02T13:18:32.167Z,-88
2023-03-02T13:21:42.933Z,-88
2023-03-02T13:24:54.810Z,-89
2023-03-02T13:28:07.652Z,-89
2023-03-02T13:31:28.081Z,-88
2023-03-02T13:34:52.717Z,-88
2023-03-02T13:38:07.721Z,-88
2023-03-02T13:41:25.924Z,-87
2023-03-02T13:44:37.632Z,-86
2023-03-02T13:47:44.779Z,-87
2023-03-02T13:51:03.037Z,-86
2023-03-02T13:54:25.073Z,-88
2023-03-02T13:57:35.743Z,-88
2023-03-02T14:00:43.267Z,-88
2023-03-02T14:03:49.226Z,-87
2023-03-02T14:06:58.138Z,-87
2023-03-02T14:10:07.344Z,-86
2023-03-02T14:13:22.806Z,-86
2023-03-02T14:16:28.597Z,-86
2023-03-02T14:19:35.252Z,-85
2023-03-02T14:22:41.063Z,-84
2023-03-02T14:25:51.113Z,-86
2023-03-02T14:29:05.585Z,-85
2023-03-02T14:32:16.024Z,-86
2023-03-02T14:35:21.963Z,-85
2023-03-02T14:38:30.725Z,-86
2023-03-02T14:41:52.865Z,-86
2023-03-02T14:45:00.545Z,-84
2023-03-02T14:48:06.859Z,-85
2023-03-02T14:51:28.400Z,-85
2023-03-02T14:54:43.846Z,-86
2023-03-02T14:58:01.177Z,-85
2023-03-02T15:01:08.624Z,-85
2023-03-02T15:04:15.124Z,-86
2023-03-02T15:07:27.714Z,-84
2023-03-02T15:10:34.841Z,-84
2023-03-02T15:13:45.724Z,-86
2023-03-02T15:16:52.600Z,-86
2023-03-02T15:19:58.822Z,-84
2023-03-02T15:23:05.853Z,-86
2023-03-02T15:26:14.920Z,-85
2023-03-02T15:29:24.907Z,-84
2023-03-02T15:32:30.798Z,-86
2023-03-02T15:35:37.431Z,-85
2023-03-02T15:38:43.449Z,-87
2023-03-02T15:41:50.137Z,-87
2023-03-02T15:44:58.636Z,-88
2023-03-02T15:48:05.280Z,-88
2023-03-02T15:51:12.940Z,-85
2023-03-02T15:54:20.997Z,-86
2023-03-02T15:57:26.823Z,-87
2023-03-02T16:00:37.968Z,-87
2023-03-02T16:03:43.842Z,-87
2023-03-02T16:06:50.688Z,-88
2023-03-02T16:09:56.796Z,-89
2023-03-02T16:13:04.737Z,-88
2023-03-02T16:16:13.553Z,-86
2023-03-02T16:19:22.011Z,-89
2023-03-02T16:22:28.013Z,-88
2023-03-02T16:25:34.808Z,-89
2023-03-02T16:28:40.700Z,-90
2023-03-02T16:31:51.636Z,-90
2023-03-02T16:34:58.049Z,-88
2023-03-02T16:38:05.015Z,-90
2023-03-02T16:41:19.219Z,-90
2023-03-02T16:44:25.896Z,-90
2023-03-02T16:47:34.515Z,-89
2023-03-02T16:50:41.614Z,-90
2023-03-02T16:53:48.229Z,-91
2023-03-02T16:56:54.897Z,-83
2023-03-02T17:00:05.772Z,-87
2023-03-02T17:03:15.151Z,-86
2023-03-02T17:06:30.296Z,-89
2023-03-02T17:09:41.442Z,-90
2023-03-02T17:12:50.266Z,-90
2023-03-02T17:15:57.751Z,-90
2023-03-02T17:19:06.208Z,-87
2023-03-02T17:22:12.990Z,-90
2023-03-02T17:25:19.229Z,-90
2023-03-02T17:28:26.666Z,-84
2023-03-02T17:31:32.584Z,-81
2023-03-02T17:34:43.516Z,-88
2023-03-02T17:37:49.609Z,-86
2023-03-02T17:40:56.188Z,-85
2023-03-02T17:44:02.610Z,-82
2023-03-02T17:47:13.236Z,-82
2023-03-02T17:50:22.390Z,-80
2023-03-02T17:53:28.900Z,-86
2023-03-02T17:56:34.824Z,-82
2023-03-02T17:59:43.106Z,-84
2023-03-02T18:02:49.367Z,-86
2023-03-02T18:05:58.763Z,-78
2023-03-02T18:09:08.204Z,-79
2023-03-02T18:12:14.793Z,-80
2023-03-02T18:15:20.792Z,-78
2023-03-02T18:18:27.857Z,-93
2023-03-02T18:21:36.889Z,-79
2023-03-02T18:24:43.447Z,-79
2023-03-02T18:27:49.620Z,-78
2023-03-02T18:30:56.228Z,-77
2023-03-02T18:34:02.177Z,-76
2023-03-02T18:37:11.793Z,-77
2023-03-02T18:40:18.510Z,-77
2023-03-02T18:43:25.137Z,-76
2023-03-02T18:46:35.058Z,-74
2023-03-02T18:49:42.774Z,-76
2023-03-02T18:52:53.073Z,-75
2023-03-02T18:55:59.927Z,-76
2023-03-02T18:59:07.391Z,-77
2023-03-02T19:02:17.242Z,-76
2023-03-02T19:05:27.092Z,-76
2023-03-02T19:08:37.229Z,-74
2023-03-02T19:11:43.154Z,-73
2023-03-02T19:14:50.074Z,-73
2023-03-02T19:17:57.369Z,-73
2023-03-02T19:21:05.041Z,-75
2023-03-02T19:24:13.773Z,-75
2023-03-02T19:27:20.494Z,-75
2023-03-02T19:30:30.069Z,-75
2023-03-02T19:33:36.955Z,-74
2023-03-02T19:36:42.900Z,-74
2023-03-02T19:39:52.596Z,-76
2023-03-02T19:42:58.820Z,-76
2023-03-02T19:46:05.616Z,-74
2023-03-02T19:49:11.599Z,-78
2023-03-02T19:52:18.594Z,-78
2023-03-02T19:55:28.952Z,-80
2023-03-02T19:58:35.945Z,-93
2023-03-02T20:01:42.245Z,-94
2023-03-02T20:04:51.078Z,-82
2023-03-02T20:07:58.027Z,-89
2023-03-02T20:11:07.957Z,-77
2023-03-02T20:14:27.625Z,-81
2023-03-02T20:17:39.750Z,-81
2023-03-02T20:20:47.403Z,-83
2023-03-02T20:23:54.752Z,-81
2023-03-02T20:27:03.727Z,-91
2023-03-02T20:30:21.631Z,-94
2023-03-02T20:33:32.456Z,-96
2023-03-02T20:36:40.988Z,-79
2023-03-02T20:39:49.869Z,-91
2023-03-02T20:42:59.254Z,-91
2023-03-02T20:46:05.969Z,-84
2023-03-02T20:49:15.992Z,-92
2023-03-02T20:52:21.830Z,-89
2023-03-02T20:55:29.822Z,-94
2023-03-02T20:58:41.315Z,-95
2023-03-02T21:01:48.185Z,-94
2023-03-02T21:04:54.429Z,-96
2023-03-02T21:08:01.608Z,-95
2023-03-02T21:11:08.098Z,-95
2023-03-02T21:14:17.565Z,-95
2023-03-02T21:17:24.471Z,-96
2023-03-02T21:20:36.040Z,-95
2023-03-02T21:23:42.747Z,-95
2023-03-02T21:26:52.279Z,-96
2023-03-02T21:30:03.456Z,-92
2023-03-02T21:33:10.572Z,-89
2023-03-02T21:36:22.360Z,-94
2023-03-02T21:39:29.444Z,-95
2023-03-02T21:42:35.317Z,-93
2023-03-02T21:45:45.300Z,-89
2023-03-02T21:48:53.625Z,-93
2023-03-02T21:52:00.756Z,-93
2023-03-02T21:55:06.976Z,-94
2023-03-02T21:58:13.637Z,-94
2023-03-02T22:01:22.251Z,-93
2023-03-02T22:04:28.939Z,-93
2023-03-02T22:07:35.075Z,-89
2023-03-02T22:10:45.631Z,-94
2023-03-02T22:13:54.077Z,-94
2023-03-02T22:17:03.695Z,-91
2023-03-02T22:20:20.596Z,-92
2023-03-02T22:23:29.431Z,-85
2023-03-02T22:26:35.851Z,-94
2023-03-02T22:29:46.859Z,-95
2023-03-02T22:32:58.385Z,-92
2023-03-02T22:36:19.118Z,-90
2023-03-02T22:39:36.355Z,-93
2023-03-02T22:42:44.036Z,-93
2023-03-02T22:45:51.195Z,-94
2023-03-02T22:49:02.606Z,-93
2023-03-02T22:52:21.170Z,-89
2023-03-02T22:55:45.137Z,-93
2023-03-02T22:58:53.739Z,-84
2023-03-02T23:02:05.435Z,-82
2023-03-02T23:05:29.846Z,-82
2023-03-02T23:08:36.598Z,-83
2023-03-02T23:11:45.118Z,-83
2023-03-02T23:14:54.546Z,-83
2023-03-02T23:18:01.608Z,-83
2023-03-02T23:21:24.174Z,-83
2023-03-02T23:24:30.125Z,-83
2023-03-02T23:27:36.790Z,-83
2023-03-02T23:30:42.763Z,-84
2023-03-02T23:33:55.808Z,-84
2023-03-02T23:37:10.240Z,-82
2023-03-02T23:40:23.101Z,-83
2023-03-02T23:43:29.266Z,-82
2023-03-02T23:46:36.714Z,-83
2023-03-02T23:49:42.617Z,-83
2023-03-02T23:52:51.858Z,-84
2023-03-02T23:55:58.815Z,-84
2023-03-02T23:59:05.545Z,-84
